sensor_id;sensor_type;location;lat;lon;timestamp;pressure;altitude;pressure_sealevel;temperature;humidity
43804;BME280;29430;52.924;-2.388;2023-05-27T00:01:50;100701.28;;;13.19;70.87
43804;BME280;29430;52.924;-2.388;2023-05-27T00:06:42;100696.22;;;13.10;70.56
43804;BME280;29430;52.924;-2.388;2023-05-27T00:11:34;100694.56;;;13.02;71.40
43804;BME280;29430;52.924;-2.388;2023-05-27T00:16:25;100698.53;;;12.93;72.45
43804;BME280;29430;52.924;-2.388;2023-05-27T00:21:18;100693.31;;;12.84;72.50
43804;BME280;29430;52.924;-2.388;2023-05-27T00:26:09;100692.47;;;12.77;73.41
43804;BME280;29430;52.924;-2.388;2023-05-27T00:31:01;100693.72;;;12.68;73.27
43804;BME280;29430;52.924;-2.388;2023-05-27T00:35:55;100696.84;;;12.58;73.68
43804;BME280;29430;52.924;-2.388;2023-05-27T00:40:49;100692.44;;;12.50;73.73
43804;BME280;29430;52.924;-2.388;2023-05-27T00:45:41;100685.09;;;12.44;74.19
43804;BME280;29430;52.924;-2.388;2023-05-27T00:50:33;100680.06;;;12.41;74.23
43804;BME280;29430;52.924;-2.388;2023-05-27T00:55:24;100682.78;;;12.34;73.96
43804;BME280;29430;52.924;-2.388;2023-05-27T01:00:16;100675.22;;;12.30;73.76
43804;BME280;29430;52.924;-2.388;2023-05-27T01:05:09;100670.63;;;12.24;74.37
43804;BME280;29430;52.924;-2.388;2023-05-27T01:15:30;100667.84;;;12.17;74.18
43804;BME280;29430;52.924;-2.388;2023-05-27T01:20:23;100670.16;;;12.13;74.04
43804;BME280;29430;52.924;-2.388;2023-05-27T01:25:16;100667.03;;;12.10;74.95
43804;BME280;29430;52.924;-2.388;2023-05-27T01:30:08;100660.94;;;12.08;74.65
43804;BME280;29430;52.924;-2.388;2023-05-27T01:35:29;100663.00;;;11.99;74.74
43804;BME280;29430;52.924;-2.388;2023-05-27T01:40:23;100654.97;;;11.91;75.23
43804;BME280;29430;52.924;-2.388;2023-05-27T01:45:15;100650.56;;;11.83;75.22
43804;BME280;29430;52.924;-2.388;2023-05-27T01:50:07;100647.19;;;11.74;75.86
43804;BME280;29430;52.924;-2.388;2023-05-27T01:54:59;100637.75;;;11.63;75.95
43804;BME280;29430;52.924;-2.388;2023-05-27T01:59:51;100637.69;;;11.57;76.13
43804;BME280;29430;52.924;-2.388;2023-05-27T02:04:42;100634.53;;;11.46;76.03
43804;BME280;29430;52.924;-2.388;2023-05-27T02:09:34;100628.59;;;11.36;76.36
43804;BME280;29430;52.924;-2.388;2023-05-27T02:14:26;100628.38;;;11.31;76.78
43804;BME280;29430;52.924;-2.388;2023-05-27T02:19:17;100624.78;;;11.24;76.99
43804;BME280;29430;52.924;-2.388;2023-05-27T02:24:11;100623.06;;;11.16;76.80
43804;BME280;29430;52.924;-2.388;2023-05-27T02:29:03;100632.19;;;11.08;77.33
43804;BME280;29430;52.924;-2.388;2023-05-27T02:33:55;100620.44;;;11.01;77.09
43804;BME280;29430;52.924;-2.388;2023-05-27T02:38:46;100618.53;;;10.95;76.84
43804;BME280;29430;52.924;-2.388;2023-05-27T02:43:38;100609.31;;;10.89;76.79
43804;BME280;29430;52.924;-2.388;2023-05-27T02:48:30;100608.63;;;10.81;77.43
43804;BME280;29430;52.924;-2.388;2023-05-27T02:53:21;100607.31;;;10.77;76.95
43804;BME280;29430;52.924;-2.388;2023-05-27T02:58:13;100601.22;;;10.68;76.87
43804;BME280;29430;52.924;-2.388;2023-05-27T03:03:05;100601.81;;;10.63;76.89
43804;BME280;29430;52.924;-2.388;2023-05-27T03:07:58;100600.28;;;10.54;77.26
43804;BME280;29430;52.924;-2.388;2023-05-27T03:12:50;100592.72;;;10.49;77.48
43804;BME280;29430;52.924;-2.388;2023-05-27T03:17:42;100599.75;;;10.44;77.30
43804;BME280;29430;52.924;-2.388;2023-05-27T03:22:35;100596.78;;;10.38;77.38
43804;BME280;29430;52.924;-2.388;2023-05-27T03:27:27;100593.53;;;10.28;77.33
43804;BME280;29430;52.924;-2.388;2023-05-27T03:32:19;100586.84;;;10.24;76.79
43804;BME280;29430;52.924;-2.388;2023-05-27T03:37:10;100580.13;;;10.20;77.76
43804;BME280;29430;52.924;-2.388;2023-05-27T03:42:02;100574.84;;;10.12;77.82
43804;BME280;29430;52.924;-2.388;2023-05-27T03:46:54;100574.75;;;10.05;77.95
43804;BME280;29430;52.924;-2.388;2023-05-27T03:51:46;100573.88;;;9.98;77.95
43804;BME280;29430;52.924;-2.388;2023-05-27T03:56:38;100569.59;;;9.89;77.88
43804;BME280;29430;52.924;-2.388;2023-05-27T04:01:30;100562.63;;;9.79;78.17
43804;BME280;29430;52.924;-2.388;2023-05-27T04:06:21;100562.34;;;9.74;78.57
43804;BME280;29430;52.924;-2.388;2023-05-27T04:11:13;100562.72;;;9.71;78.12
43804;BME280;29430;52.924;-2.388;2023-05-27T04:16:05;100566.84;;;9.67;78.06
43804;BME280;29430;52.924;-2.388;2023-05-27T04:20:58;100579.53;;;9.66;77.95
43804;BME280;29430;52.924;-2.388;2023-05-27T04:25:51;100570.41;;;9.67;78.07
43804;BME280;29430;52.924;-2.388;2023-05-27T04:30:44;100574.84;;;9.75;77.58
43804;BME280;29430;52.924;-2.388;2023-05-27T04:35:37;100578.09;;;9.85;77.93
43804;BME280;29430;52.924;-2.388;2023-05-27T04:40:29;100580.56;;;10.24;77.51
43804;BME280;29430;52.924;-2.388;2023-05-27T04:45:20;100580.34;;;10.68;75.31
43804;BME280;29430;52.924;-2.388;2023-05-27T04:50:13;100577.69;;;11.10;74.56
43804;BME280;29430;52.924;-2.388;2023-05-27T04:55:05;100584.41;;;11.56;72.10
43804;BME280;29430;52.924;-2.388;2023-05-27T04:59:57;100583.72;;;11.95;70.40
43804;BME280;29430;52.924;-2.388;2023-05-27T05:04:54;100586.09;;;12.25;68.30
43804;BME280;29430;52.924;-2.388;2023-05-27T05:09:46;100581.06;;;12.56;66.84
43804;BME280;29430;52.924;-2.388;2023-05-27T05:14:37;100587.31;;;12.89;65.70
43804;BME280;29430;52.924;-2.388;2023-05-27T05:19:29;100581.41;;;13.19;64.33
43804;BME280;29430;52.924;-2.388;2023-05-27T05:24:21;100580.09;;;13.42;62.78
43804;BME280;29430;52.924;-2.388;2023-05-27T05:29:12;100573.69;;;13.75;61.90
43804;BME280;29430;52.924;-2.388;2023-05-27T05:34:04;100578.25;;;14.20;60.80
43804;BME280;29430;52.924;-2.388;2023-05-27T05:38:56;100576.06;;;14.60;59.78
43804;BME280;29430;52.924;-2.388;2023-05-27T05:43:48;100578.06;;;15.15;58.34
43804;BME280;29430;52.924;-2.388;2023-05-27T05:48:40;100571.47;;;15.72;54.95
43804;BME280;29430;52.924;-2.388;2023-05-27T05:53:31;100569.78;;;16.20;53.67
43804;BME280;29430;52.924;-2.388;2023-05-27T05:58:23;100573.19;;;16.69;53.17
43804;BME280;29430;52.924;-2.388;2023-05-27T06:03:15;100565.34;;;17.08;51.02
43804;BME280;29430;52.924;-2.388;2023-05-27T06:08:07;100561.97;;;17.42;49.37
43804;BME280;29430;52.924;-2.388;2023-05-27T06:12:58;100559.75;;;17.67;48.87
43804;BME280;29430;52.924;-2.388;2023-05-27T06:17:50;100562.88;;;17.88;47.41
43804;BME280;29430;52.924;-2.388;2023-05-27T06:22:42;100560.28;;;18.10;47.58
43804;BME280;29430;52.924;-2.388;2023-05-27T06:27:33;100564.25;;;18.48;47.29
43804;BME280;29430;52.924;-2.388;2023-05-27T06:32:25;100549.56;;;18.76;45.95
43804;BME280;29430;52.924;-2.388;2023-05-27T06:37:17;100551.41;;;19.27;45.37
43804;BME280;29430;52.924;-2.388;2023-05-27T06:42:08;100539.56;;;19.48;44.88
43804;BME280;29430;52.924;-2.388;2023-05-27T06:47:00;100531.34;;;19.76;44.32
43804;BME280;29430;52.924;-2.388;2023-05-27T06:51:53;100541.53;;;20.30;43.31
43804;BME280;29430;52.924;-2.388;2023-05-27T06:56:45;100540.66;;;20.62;41.99
43804;BME280;29430;52.924;-2.388;2023-05-27T07:01:37;100530.50;;;20.62;42.02
43804;BME280;29430;52.924;-2.388;2023-05-27T07:06:29;100525.81;;;21.05;40.45
43804;BME280;29430;52.924;-2.388;2023-05-27T07:11:20;100522.63;;;21.34;41.36
43804;BME280;29430;52.924;-2.388;2023-05-27T07:16:13;100515.06;;;21.98;39.58
43804;BME280;29430;52.924;-2.388;2023-05-27T07:21:04;100517.34;;;22.52;38.88
43804;BME280;29430;52.924;-2.388;2023-05-27T07:25:56;100512.22;;;23.27;38.11
43804;BME280;29430;52.924;-2.388;2023-05-27T07:30:48;100513.78;;;23.48;36.47
43804;BME280;29430;52.924;-2.388;2023-05-27T07:35:40;100513.88;;;23.77;37.95
43804;BME280;29430;52.924;-2.388;2023-05-27T07:40:32;100509.97;;;23.78;35.83
43804;BME280;29430;52.924;-2.388;2023-05-27T07:45:24;100506.56;;;23.97;35.13
43804;BME280;29430;52.924;-2.388;2023-05-27T07:50:15;100501.84;;;24.32;33.29
43804;BME280;29430;52.924;-2.388;2023-05-27T07:55:08;100502.81;;;24.17;33.81
43804;BME280;29430;52.924;-2.388;2023-05-27T07:59:59;100490.13;;;24.40;34.63
43804;BME280;29430;52.924;-2.388;2023-05-27T08:04:51;100491.00;;;24.70;34.28
43804;BME280;29430;52.924;-2.388;2023-05-27T08:09:43;100474.34;;;24.94;33.03
43804;BME280;29430;52.924;-2.388;2023-05-27T08:14:35;100476.22;;;25.23;32.63
43804;BME280;29430;52.924;-2.388;2023-05-27T08:19:27;100476.13;;;25.33;32.65
43804;BME280;29430;52.924;-2.388;2023-05-27T08:24:19;100470.66;;;25.47;32.81
43804;BME280;29430;52.924;-2.388;2023-05-27T08:29:13;100466.19;;;26.03;31.18
43804;BME280;29430;52.924;-2.388;2023-05-27T08:34:05;100465.13;;;26.18;30.86
43804;BME280;29430;52.924;-2.388;2023-05-27T08:38:56;100465.78;;;26.29;31.45
43804;BME280;29430;52.924;-2.388;2023-05-27T08:43:48;100465.66;;;26.34;29.81
43804;BME280;29430;52.924;-2.388;2023-05-27T08:48:41;100460.47;;;26.60;30.49
43804;BME280;29430;52.924;-2.388;2023-05-27T08:53:34;100446.97;;;26.82;30.07
43804;BME280;29430;52.924;-2.388;2023-05-27T08:58:27;100454.81;;;27.35;29.34
43804;BME280;29430;52.924;-2.388;2023-05-27T09:03:18;100441.44;;;27.60;29.89
43804;BME280;29430;52.924;-2.388;2023-05-27T09:08:10;100442.16;;;27.65;28.97
43804;BME280;29430;52.924;-2.388;2023-05-27T09:13:02;100441.66;;;28.09;27.41
43804;BME280;29430;52.924;-2.388;2023-05-27T09:17:54;100426.94;;;28.48;27.80
43804;BME280;29430;52.924;-2.388;2023-05-27T09:22:45;100423.09;;;28.67;27.44
43804;BME280;29430;52.924;-2.388;2023-05-27T09:27:37;100413.63;;;28.77;28.51
43804;BME280;29430;52.924;-2.388;2023-05-27T09:32:32;100413.66;;;28.94;27.57
43804;BME280;29430;52.924;-2.388;2023-05-27T09:37:25;100405.63;;;29.10;27.66
43804;BME280;29430;52.924;-2.388;2023-05-27T09:42:17;100407.13;;;29.16;27.91
43804;BME280;29430;52.924;-2.388;2023-05-27T09:47:11;100400.63;;;29.29;27.62
43804;BME280;29430;52.924;-2.388;2023-05-27T09:52:05;100396.19;;;29.46;27.68
43804;BME280;29430;52.924;-2.388;2023-05-27T09:56:58;100394.31;;;29.06;27.95
43804;BME280;29430;52.924;-2.388;2023-05-27T10:01:50;100392.53;;;29.10;28.80
43804;BME280;29430;52.924;-2.388;2023-05-27T10:06:44;100384.34;;;29.49;28.54
43804;BME280;29430;52.924;-2.388;2023-05-27T10:11:36;100390.75;;;29.85;27.56
43804;BME280;29430;52.924;-2.388;2023-05-27T10:16:29;100385.13;;;30.02;27.25
43804;BME280;29430;52.924;-2.388;2023-05-27T10:21:22;100379.41;;;29.81;27.50
43804;BME280;29430;52.924;-2.388;2023-05-27T10:26:17;100384.16;;;29.72;26.34
43804;BME280;29430;52.924;-2.388;2023-05-27T10:31:18;100371.50;;;29.65;27.32
43804;BME280;29430;52.924;-2.388;2023-05-27T10:36:22;100373.13;;;29.84;27.50
43804;BME280;29430;52.924;-2.388;2023-05-27T10:41:13;100367.88;;;29.82;26.98
43804;BME280;29430;52.924;-2.388;2023-05-27T10:46:12;100365.56;;;29.93;26.76
43804;BME280;29430;52.924;-2.388;2023-05-27T10:51:04;100364.59;;;29.89;25.89
43804;BME280;29430;52.924;-2.388;2023-05-27T10:55:58;100346.84;;;29.59;25.31
43804;BME280;29430;52.924;-2.388;2023-05-27T11:00:51;100348.31;;;29.30;26.82
43804;BME280;29430;52.924;-2.388;2023-05-27T11:05:44;100337.00;;;29.26;26.65
43804;BME280;29430;52.924;-2.388;2023-05-27T11:10:35;100346.88;;;29.33;26.73
43804;BME280;29430;52.924;-2.388;2023-05-27T11:15:27;100327.44;;;29.45;26.59
43804;BME280;29430;52.924;-2.388;2023-05-27T11:20:18;100326.63;;;29.53;27.14
43804;BME280;29430;52.924;-2.388;2023-05-27T11:25:10;100312.44;;;29.76;26.81
43804;BME280;29430;52.924;-2.388;2023-05-27T11:30:09;100313.75;;;29.70;26.40
43804;BME280;29430;52.924;-2.388;2023-05-27T11:35:01;100312.94;;;29.69;26.27
43804;BME280;29430;52.924;-2.388;2023-05-27T11:39:54;100300.31;;;29.63;25.80
43804;BME280;29430;52.924;-2.388;2023-05-27T11:44:50;100291.97;;;29.37;24.93
43804;BME280;29430;52.924;-2.388;2023-05-27T11:49:42;100282.91;;;29.05;27.38
43804;BME280;29430;52.924;-2.388;2023-05-27T11:54:34;100266.00;;;29.27;26.58
43804;BME280;29430;52.924;-2.388;2023-05-27T11:59:31;100272.25;;;29.24;26.59
43804;BME280;29430;52.924;-2.388;2023-05-27T12:04:23;100266.16;;;29.22;25.38
43804;BME280;29430;52.924;-2.388;2023-05-27T12:09:14;100263.81;;;28.81;27.42
43804;BME280;29430;52.924;-2.388;2023-05-27T12:14:06;100267.44;;;28.64;28.59
43804;BME280;29430;52.924;-2.388;2023-05-27T12:18:58;100261.22;;;28.75;29.38
43804;BME280;29430;52.924;-2.388;2023-05-27T12:23:50;100258.91;;;28.86;29.19
43804;BME280;29430;52.924;-2.388;2023-05-27T12:28:42;100244.47;;;28.75;28.35
43804;BME280;29430;52.924;-2.388;2023-05-27T12:33:34;100240.69;;;28.63;27.03
43804;BME280;29430;52.924;-2.388;2023-05-27T12:38:26;100232.41;;;28.40;28.74
43804;BME280;29430;52.924;-2.388;2023-05-27T12:43:18;100228.75;;;28.31;28.63
43804;BME280;29430;52.924;-2.388;2023-05-27T12:48:12;100218.50;;;28.00;29.01
43804;BME280;29430;52.924;-2.388;2023-05-27T12:53:04;100214.84;;;27.91;29.39
43804;BME280;29430;52.924;-2.388;2023-05-27T12:57:56;100205.63;;;27.81;30.62
43804;BME280;29430;52.924;-2.388;2023-05-27T13:02:48;100193.03;;;27.52;28.87
43804;BME280;29430;52.924;-2.388;2023-05-27T13:07:40;100189.06;;;27.00;29.00
43804;BME280;29430;52.924;-2.388;2023-05-27T13:12:34;100190.59;;;26.47;28.85
43804;BME280;29430;52.924;-2.388;2023-05-27T13:17:25;100188.50;;;26.16;30.78
43804;BME280;29430;52.924;-2.388;2023-05-27T13:22:17;100183.13;;;26.05;30.88
43804;BME280;29430;52.924;-2.388;2023-05-27T13:27:09;100180.03;;;26.07;30.78
43804;BME280;29430;52.924;-2.388;2023-05-27T13:32:01;100171.28;;;25.86;29.25
43804;BME280;29430;52.924;-2.388;2023-05-27T13:36:53;100171.69;;;25.65;30.19
43804;BME280;29430;52.924;-2.388;2023-05-27T13:41:45;100167.47;;;25.54;29.37
43804;BME280;29430;52.924;-2.388;2023-05-27T13:46:38;100161.94;;;25.21;29.39
43804;BME280;29430;52.924;-2.388;2023-05-27T13:51:30;100160.03;;;25.02;28.10
43804;BME280;29430;52.924;-2.388;2023-05-27T13:56:22;100158.66;;;24.86;28.24
43804;BME280;29430;52.924;-2.388;2023-05-27T14:01:14;100143.16;;;24.99;29.23
43804;BME280;29430;52.924;-2.388;2023-05-27T14:06:06;100152.78;;;24.88;26.66
43804;BME280;29430;52.924;-2.388;2023-05-27T14:10:59;100144.56;;;24.63;27.37
43804;BME280;29430;52.924;-2.388;2023-05-27T14:15:51;100137.91;;;24.64;28.09
43804;BME280;29430;52.924;-2.388;2023-05-27T14:20:43;100135.53;;;24.58;28.06
43804;BME280;29430;52.924;-2.388;2023-05-27T14:25:35;100124.25;;;24.49;27.44
43804;BME280;29430;52.924;-2.388;2023-05-27T14:30:27;100115.34;;;24.33;29.71
43804;BME280;29430;52.924;-2.388;2023-05-27T14:35:19;100121.19;;;24.51;29.03
43804;BME280;29430;52.924;-2.388;2023-05-27T14:40:11;100118.84;;;24.39;28.11
43804;BME280;29430;52.924;-2.388;2023-05-27T14:45:02;100110.84;;;24.37;28.65
43804;BME280;29430;52.924;-2.388;2023-05-27T14:49:54;100099.44;;;24.39;29.36
43804;BME280;29430;52.924;-2.388;2023-05-27T14:54:46;100104.09;;;24.43;30.28
43804;BME280;29430;52.924;-2.388;2023-05-27T14:59:37;100098.22;;;24.45;31.19
43804;BME280;29430;52.924;-2.388;2023-05-27T15:04:29;100096.31;;;24.45;30.49
43804;BME280;29430;52.924;-2.388;2023-05-27T15:09:21;100090.91;;;24.35;30.39
43804;BME280;29430;52.924;-2.388;2023-05-27T15:14:13;100088.44;;;24.34;30.88
43804;BME280;29430;52.924;-2.388;2023-05-27T15:19:04;100087.09;;;24.31;30.33
43804;BME280;29430;52.924;-2.388;2023-05-27T15:23:56;100088.16;;;24.16;31.34
43804;BME280;29430;52.924;-2.388;2023-05-27T15:28:48;100076.69;;;24.04;31.29
43804;BME280;29430;52.924;-2.388;2023-05-27T15:33:40;100077.44;;;23.90;32.10
43804;BME280;29430;52.924;-2.388;2023-05-27T15:38:32;100080.28;;;23.85;32.55
43804;BME280;29430;52.924;-2.388;2023-05-27T15:43:23;100075.41;;;23.96;33.46
43804;BME280;29430;52.924;-2.388;2023-05-27T15:48:15;100069.19;;;24.04;32.29
43804;BME280;29430;52.924;-2.388;2023-05-27T15:53:07;100057.44;;;23.93;32.42
43804;BME280;29430;52.924;-2.388;2023-05-27T15:57:59;100061.50;;;23.77;33.13
43804;BME280;29430;52.924;-2.388;2023-05-27T16:02:52;100049.91;;;23.75;33.58
43804;BME280;29430;52.924;-2.388;2023-05-27T16:07:44;100051.44;;;23.86;34.38
43804;BME280;29430;52.924;-2.388;2023-05-27T16:12:36;100055.34;;;23.80;33.67
43804;BME280;29430;52.924;-2.388;2023-05-27T16:17:27;100061.28;;;23.73;33.81
43804;BME280;29430;52.924;-2.388;2023-05-27T16:22:20;100051.47;;;23.62;33.63
43804;BME280;29430;52.924;-2.388;2023-05-27T16:27:11;100046.75;;;23.63;33.63
43804;BME280;29430;52.924;-2.388;2023-05-27T16:32:03;100046.81;;;23.57;34.82
43804;BME280;29430;52.924;-2.388;2023-05-27T16:36:58;100038.84;;;23.51;34.75
43804;BME280;29430;52.924;-2.388;2023-05-27T16:41:50;100034.97;;;23.52;35.13
43804;BME280;29430;52.924;-2.388;2023-05-27T16:46:43;100039.63;;;23.56;34.60
43804;BME280;29430;52.924;-2.388;2023-05-27T16:51:34;100037.28;;;23.45;35.32
43804;BME280;29430;52.924;-2.388;2023-05-27T16:56:27;100031.00;;;23.39;35.95
43804;BME280;29430;52.924;-2.388;2023-05-27T17:01:19;100029.13;;;23.34;38.40
43804;BME280;29430;52.924;-2.388;2023-05-27T17:06:11;100010.66;;;23.24;39.25
43804;BME280;29430;52.924;-2.388;2023-05-27T17:11:02;100014.59;;;23.18;40.15
43804;BME280;29430;52.924;-2.388;2023-05-27T17:15:54;100014.09;;;23.16;39.73
43804;BME280;29430;52.924;-2.388;2023-05-27T17:20:46;100016.09;;;23.11;40.71
43804;BME280;29430;52.924;-2.388;2023-05-27T17:25:38;100018.16;;;22.95;40.72
43804;BME280;29430;52.924;-2.388;2023-05-27T17:30:30;100016.94;;;22.82;40.89
43804;BME280;29430;52.924;-2.388;2023-05-27T17:35:22;100019.00;;;22.66;41.26
43804;BME280;29430;52.924;-2.388;2023-05-27T17:40:13;100020.22;;;22.55;41.96
43804;BME280;29430;52.924;-2.388;2023-05-27T17:45:06;100030.59;;;22.39;41.92
43804;BME280;29430;52.924;-2.388;2023-05-27T17:49:57;100041.47;;;22.20;42.14
43804;BME280;29430;52.924;-2.388;2023-05-27T17:54:49;100039.09;;;22.08;42.43
43804;BME280;29430;52.924;-2.388;2023-05-27T17:59:41;100044.13;;;21.95;42.84
43804;BME280;29430;52.924;-2.388;2023-05-27T18:04:34;100048.63;;;21.81;43.00
43804;BME280;29430;52.924;-2.388;2023-05-27T18:09:26;100044.53;;;21.73;44.12
43804;BME280;29430;52.924;-2.388;2023-05-27T18:14:18;100033.84;;;21.61;44.58
43804;BME280;29430;52.924;-2.388;2023-05-27T18:19:09;100044.63;;;21.48;45.67
43804;BME280;29430;52.924;-2.388;2023-05-27T18:24:01;100050.72;;;21.39;45.81
43804;BME280;29430;52.924;-2.388;2023-05-27T18:28:53;100047.16;;;21.28;46.61
43804;BME280;29430;52.924;-2.388;2023-05-27T18:33:45;100043.63;;;21.23;47.15
43804;BME280;29430;52.924;-2.388;2023-05-27T18:38:37;100048.59;;;21.16;46.61
43804;BME280;29430;52.924;-2.388;2023-05-27T18:43:30;100048.59;;;21.16;47.66
43804;BME280;29430;52.924;-2.388;2023-05-27T18:48:23;100048.34;;;21.12;47.01
43804;BME280;29430;52.924;-2.388;2023-05-27T18:53:16;100046.44;;;20.97;46.88
43804;BME280;29430;52.924;-2.388;2023-05-27T18:58:09;100054.19;;;20.90;47.02
43804;BME280;29430;52.924;-2.388;2023-05-27T19:03:01;100061.91;;;20.83;46.72
43804;BME280;29430;52.924;-2.388;2023-05-27T19:07:55;100066.34;;;20.68;46.33
43804;BME280;29430;52.924;-2.388;2023-05-27T19:12:48;100067.69;;;20.55;46.64
43804;BME280;29430;52.924;-2.388;2023-05-27T19:17:40;100065.75;;;20.51;46.83
43804;BME280;29430;52.924;-2.388;2023-05-27T19:22:32;100069.06;;;20.43;47.33
43804;BME280;29430;52.924;-2.388;2023-05-27T19:27:28;100065.75;;;20.30;47.51
43804;BME280;29430;52.924;-2.388;2023-05-27T19:32:20;100066.00;;;20.18;47.99
43804;BME280;29430;52.924;-2.388;2023-05-27T19:37:12;100066.00;;;20.08;48.39
43804;BME280;29430;52.924;-2.388;2023-05-27T19:42:04;100081.09;;;19.95;48.49
43804;BME280;29430;52.924;-2.388;2023-05-27T19:46:56;100077.78;;;19.88;48.63
43804;BME280;29430;52.924;-2.388;2023-05-27T19:51:47;100070.81;;;19.75;49.23
43804;BME280;29430;52.924;-2.388;2023-05-27T19:56:40;100078.47;;;19.63;49.38
43804;BME280;29430;52.924;-2.388;2023-05-27T20:01:31;100073.50;;;19.49;49.53
43804;BME280;29430;52.924;-2.388;2023-05-27T20:06:23;100079.19;;;19.38;49.69
43804;BME280;29430;52.924;-2.388;2023-05-27T20:11:15;100080.25;;;19.26;50.03
43804;BME280;29430;52.924;-2.388;2023-05-27T20:16:06;100087.88;;;19.14;49.87
43804;BME280;29430;52.924;-2.388;2023-05-27T20:20:58;100079.28;;;19.00;50.26
43804;BME280;29430;52.924;-2.388;2023-05-27T20:25:50;100080.47;;;18.82;50.66
43804;BME280;29430;52.924;-2.388;2023-05-27T20:30:41;100078.44;;;18.67;50.85
43804;BME280;29430;52.924;-2.388;2023-05-27T20:35:33;100084.91;;;18.51;51.10
43804;BME280;29430;52.924;-2.388;2023-05-27T20:40:25;100085.09;;;18.44;51.65
43804;BME280;29430;52.924;-2.388;2023-05-27T20:45:17;100083.38;;;18.33;52.05
43804;BME280;29430;52.924;-2.388;2023-05-27T20:50:09;100092.00;;;18.19;52.61
43804;BME280;29430;52.924;-2.388;2023-05-27T20:55:01;100095.19;;;18.06;53.01
43804;BME280;29430;52.924;-2.388;2023-05-27T20:59:54;100088.50;;;17.97;53.87
43804;BME280;29430;52.924;-2.388;2023-05-27T21:04:45;100090.00;;;17.87;53.97
43804;BME280;29430;52.924;-2.388;2023-05-27T21:09:38;100094.28;;;17.78;54.44
43804;BME280;29430;52.924;-2.388;2023-05-27T21:14:30;100094.88;;;17.58;55.59
43804;BME280;29430;52.924;-2.388;2023-05-27T21:19:21;100096.91;;;17.46;55.79
43804;BME280;29430;52.924;-2.388;2023-05-27T21:24:13;100097.31;;;17.38;55.99
43804;BME280;29430;52.924;-2.388;2023-05-27T21:29:05;100093.47;;;17.33;55.88
43804;BME280;29430;52.924;-2.388;2023-05-27T21:33:56;100089.81;;;17.28;56.06
43804;BME280;29430;52.924;-2.388;2023-05-27T21:38:48;100088.00;;;17.16;56.39
43804;BME280;29430;52.924;-2.388;2023-05-27T21:43:40;100084.19;;;17.00;56.46
43804;BME280;29430;52.924;-2.388;2023-05-27T21:48:31;100086.34;;;16.81;56.46
43804;BME280;29430;52.924;-2.388;2023-05-27T21:53:23;100078.97;;;16.65;57.28
43804;BME280;29430;52.924;-2.388;2023-05-27T21:58:15;100083.13;;;16.51;57.16
43804;BME280;29430;52.924;-2.388;2023-05-27T22:03:07;100094.13;;;16.39;57.20
43804;BME280;29430;52.924;-2.388;2023-05-27T22:08:02;100092.31;;;16.27;57.12
43804;BME280;29430;52.924;-2.388;2023-05-27T22:12:54;100086.75;;;16.22;57.32
43804;BME280;29430;52.924;-2.388;2023-05-27T22:17:46;100095.69;;;16.18;57.38
43804;BME280;29430;52.924;-2.388;2023-05-27T22:22:38;100092.84;;;16.13;57.64
43804;BME280;29430;52.924;-2.388;2023-05-27T22:27:30;100087.78;;;16.04;58.34
43804;BME280;29430;52.924;-2.388;2023-05-27T22:32:22;100075.56;;;15.95;59.04
43804;BME280;29430;52.924;-2.388;2023-05-27T22:37:14;100075.72;;;15.88;58.99
43804;BME280;29430;52.924;-2.388;2023-05-27T22:42:05;100079.28;;;15.89;58.65
43804;BME280;29430;52.924;-2.388;2023-05-27T22:46:58;100085.72;;;15.83;59.22
43804;BME280;29430;52.924;-2.388;2023-05-27T22:51:50;100082.78;;;15.72;59.94
43804;BME280;29430;52.924;-2.388;2023-05-27T22:56:42;100089.09;;;15.61;60.17
43804;BME280;29430;52.924;-2.388;2023-05-27T23:01:34;100091.63;;;15.51;61.02
43804;BME280;29430;52.924;-2.388;2023-05-27T23:06:26;100091.41;;;15.40;61.52
43804;BME280;29430;52.924;-2.388;2023-05-27T23:11:17;100083.94;;;15.24;61.71
43804;BME280;29430;52.924;-2.388;2023-05-27T23:16:09;100093.69;;;15.20;62.71
43804;BME280;29430;52.924;-2.388;2023-05-27T23:21:01;100082.19;;;15.06;62.84
43804;BME280;29430;52.924;-2.388;2023-05-27T23:25:55;100077.91;;;14.98;64.24
43804;BME280;29430;52.924;-2.388;2023-05-27T23:30:47;100078.84;;;14.92;64.98
43804;BME280;29430;52.924;-2.388;2023-05-27T23:35:38;100075.97;;;14.87;67.05
43804;BME280;29430;52.924;-2.388;2023-05-27T23:40:30;100072.19;;;14.76;67.56
43804;BME280;29430;52.924;-2.388;2023-05-27T23:45:24;100069.09;;;14.73;68.37
43804;BME280;29430;52.924;-2.388;2023-05-27T23:50:15;100070.06;;;14.66;69.81
43804;BME280;29430;52.924;-2.388;2023-05-27T23:55:07;100073.94;;;14.59;69.83
43804;BME280;29430;52.924;-2.388;2023-05-27T23:59:59;100076.06;;;14.57;71.07
